sensor_id;sensor_type;location;lat;lon;timestamp;temperature;humidity
13806;DHT22;6974;53.606;9.872;2023-04-03T00:01:44;4.30;99.90
13806;DHT22;6974;53.606;9.872;2023-04-03T00:04:11;4.30;99.90
13806;DHT22;6974;53.606;9.872;2023-04-03T00:06:38;4.30;99.90
13806;DHT22;6974;53.606;9.872;2023-04-03T00:09:05;4.20;99.90
13806;DHT22;6974;53.606;9.872;2023-04-03T00:11:32;4.20;99.90
13806;DHT22;6974;53.606;9.872;2023-04-03T00:13:59;4.20;99.90
13806;DHT22;6974;53.606;9.872;2023-04-03T00:16:27;4.20;99.90
13806;DHT22;6974;53.606;9.872;2023-04-03T00:18:55;4.30;99.90
13806;DHT22;6974;53.606;9.872;2023-04-03T00:21:22;4.20;99.90
13806;DHT22;6974;53.606;9.872;2023-04-03T00:23:49;4.20;99.90
13806;DHT22;6974;53.606;9.872;2023-04-03T00:26:16;4.20;99.90
13806;DHT22;6974;53.606;9.872;2023-04-03T00:28:44;4.20;99.90
13806;DHT22;6974;53.606;9.872;2023-04-03T00:31:11;4.10;99.90
13806;DHT22;6974;53.606;9.872;2023-04-03T00:33:40;4.10;99.90
13806;DHT22;6974;53.606;9.872;2023-04-03T00:36:10;4.10;99.90
13806;DHT22;6974;53.606;9.872;2023-04-03T00:38:39;4.10;99.90
13806;DHT22;6974;53.606;9.872;2023-04-03T00:41:07;4.10;99.90
13806;DHT22;6974;53.606;9.872;2023-04-03T00:43:35;4.10;99.90
13806;DHT22;6974;53.606;9.872;2023-04-03T00:46:02;4.00;99.90
13806;DHT22;6974;53.606;9.872;2023-04-03T00:48:31;4.00;99.90
13806;DHT22;6974;53.606;9.872;2023-04-03T00:51:00;4.00;99.90
13806;DHT22;6974;53.606;9.872;2023-04-03T00:53:31;4.10;99.90
13806;DHT22;6974;53.606;9.872;2023-04-03T00:56:00;4.00;99.90
13806;DHT22;6974;53.606;9.872;2023-04-03T00:58:32;4.00;99.90
13806;DHT22;6974;53.606;9.872;2023-04-03T01:01:03;4.00;99.90
13806;DHT22;6974;53.606;9.872;2023-04-03T01:03:32;3.90;99.90
13806;DHT22;6974;53.606;9.872;2023-04-03T01:05:59;3.80;99.90
13806;DHT22;6974;53.606;9.872;2023-04-03T01:08:26;3.80;99.90
13806;DHT22;6974;53.606;9.872;2023-04-03T01:10:55;3.80;99.90
13806;DHT22;6974;53.606;9.872;2023-04-03T01:13:25;3.70;99.90
13806;DHT22;6974;53.606;9.872;2023-04-03T01:15:52;3.70;99.90
13806;DHT22;6974;53.606;9.872;2023-04-03T01:18:21;3.70;99.90
13806;DHT22;6974;53.606;9.872;2023-04-03T01:24:15;3.60;99.90
13806;DHT22;6974;53.606;9.872;2023-04-03T01:26:45;3.50;99.90
13806;DHT22;6974;53.606;9.872;2023-04-03T01:29:13;3.60;99.90
13806;DHT22;6974;53.606;9.872;2023-04-03T01:31:48;3.50;99.90
13806;DHT22;6974;53.606;9.872;2023-04-03T01:34:15;3.50;99.90
13806;DHT22;6974;53.606;9.872;2023-04-03T01:36:42;3.60;99.90
13806;DHT22;6974;53.606;9.872;2023-04-03T01:39:12;3.40;99.90
13806;DHT22;6974;53.606;9.872;2023-04-03T01:41:39;3.40;99.90
13806;DHT22;6974;53.606;9.872;2023-04-03T01:44:06;3.40;99.90
13806;DHT22;6974;53.606;9.872;2023-04-03T01:46:33;3.40;99.90
13806;DHT22;6974;53.606;9.872;2023-04-03T01:49:02;3.40;99.90
13806;DHT22;6974;53.606;9.872;2023-04-03T01:51:31;3.50;99.90
13806;DHT22;6974;53.606;9.872;2023-04-03T01:53:58;3.40;99.90
13806;DHT22;6974;53.606;9.872;2023-04-03T01:56:25;3.30;99.90
13806;DHT22;6974;53.606;9.872;2023-04-03T01:58:52;3.30;99.90
13806;DHT22;6974;53.606;9.872;2023-04-03T02:01:20;3.30;99.90
13806;DHT22;6974;53.606;9.872;2023-04-03T02:03:48;3.30;99.90
13806;DHT22;6974;53.606;9.872;2023-04-03T02:06:16;3.40;99.90
13806;DHT22;6974;53.606;9.872;2023-04-03T02:08:43;3.50;99.90
13806;DHT22;6974;53.606;9.872;2023-04-03T02:11:10;3.40;99.90
13806;DHT22;6974;53.606;9.872;2023-04-03T02:13:37;3.30;99.90
13806;DHT22;6974;53.606;9.872;2023-04-03T02:16:08;3.20;99.90
13806;DHT22;6974;53.606;9.872;2023-04-03T02:18:37;3.20;99.90
13806;DHT22;6974;53.606;9.872;2023-04-03T02:21:05;3.20;99.90
13806;DHT22;6974;53.606;9.872;2023-04-03T02:23:34;3.20;99.90
13806;DHT22;6974;53.606;9.872;2023-04-03T02:26:04;3.30;99.90
13806;DHT22;6974;53.606;9.872;2023-04-03T02:28:32;3.20;99.90
13806;DHT22;6974;53.606;9.872;2023-04-03T02:30:59;3.20;99.90
13806;DHT22;6974;53.606;9.872;2023-04-03T02:33:26;3.20;99.90
13806;DHT22;6974;53.606;9.872;2023-04-03T02:35:53;3.20;99.90
13806;DHT22;6974;53.606;9.872;2023-04-03T02:38:21;3.10;99.90
13806;DHT22;6974;53.606;9.872;2023-04-03T02:40:59;3.20;99.90
13806;DHT22;6974;53.606;9.872;2023-04-03T02:43:26;3.20;99.90
13806;DHT22;6974;53.606;9.872;2023-04-03T02:45:53;3.20;99.90
13806;DHT22;6974;53.606;9.872;2023-04-03T02:48:22;3.30;99.90
13806;DHT22;6974;53.606;9.872;2023-04-03T02:50:49;3.20;99.90
13806;DHT22;6974;53.606;9.872;2023-04-03T02:53:17;3.10;99.90
13806;DHT22;6974;53.606;9.872;2023-04-03T02:55:44;3.10;99.90
13806;DHT22;6974;53.606;9.872;2023-04-03T02:58:12;3.00;99.90
13806;DHT22;6974;53.606;9.872;2023-04-03T03:00:39;3.00;99.90
13806;DHT22;6974;53.606;9.872;2023-04-03T03:03:07;3.00;99.90
13806;DHT22;6974;53.606;9.872;2023-04-03T03:05:34;3.10;99.90
13806;DHT22;6974;53.606;9.872;2023-04-03T03:08:01;3.00;99.90
13806;DHT22;6974;53.606;9.872;2023-04-03T03:10:28;3.00;99.90
13806;DHT22;6974;53.606;9.872;2023-04-03T03:12:55;2.90;99.90
13806;DHT22;6974;53.606;9.872;2023-04-03T03:15:24;2.90;99.90
13806;DHT22;6974;53.606;9.872;2023-04-03T03:17:51;2.80;99.90
13806;DHT22;6974;53.606;9.872;2023-04-03T03:20:18;2.90;99.90
13806;DHT22;6974;53.606;9.872;2023-04-03T03:22:48;2.90;99.90
13806;DHT22;6974;53.606;9.872;2023-04-03T03:25:15;2.90;99.90
13806;DHT22;6974;53.606;9.872;2023-04-03T03:27:42;2.90;99.90
13806;DHT22;6974;53.606;9.872;2023-04-03T03:30:10;2.80;99.90
13806;DHT22;6974;53.606;9.872;2023-04-03T03:32:39;2.80;99.90
13806;DHT22;6974;53.606;9.872;2023-04-03T03:35:06;2.80;99.90
13806;DHT22;6974;53.606;9.872;2023-04-03T03:37:33;2.70;99.90
13806;DHT22;6974;53.606;9.872;2023-04-03T03:40:00;2.80;99.90
13806;DHT22;6974;53.606;9.872;2023-04-03T03:42:27;2.80;99.90
13806;DHT22;6974;53.606;9.872;2023-04-03T03:44:54;2.80;99.90
13806;DHT22;6974;53.606;9.872;2023-04-03T03:47:21;2.80;99.90
13806;DHT22;6974;53.606;9.872;2023-04-03T03:49:49;2.90;99.90
13806;DHT22;6974;53.606;9.872;2023-04-03T03:52:16;2.80;99.90
13806;DHT22;6974;53.606;9.872;2023-04-03T03:54:44;2.80;99.90
13806;DHT22;6974;53.606;9.872;2023-04-03T03:57:11;2.70;99.90
13806;DHT22;6974;53.606;9.872;2023-04-03T03:59:38;2.70;99.90
13806;DHT22;6974;53.606;9.872;2023-04-03T04:02:06;2.70;99.90
13806;DHT22;6974;53.606;9.872;2023-04-03T04:04:33;2.70;99.90
13806;DHT22;6974;53.606;9.872;2023-04-03T04:07:02;2.80;99.90
13806;DHT22;6974;53.606;9.872;2023-04-03T04:09:29;2.80;99.90
13806;DHT22;6974;53.606;9.872;2023-04-03T04:11:56;2.70;99.90
13806;DHT22;6974;53.606;9.872;2023-04-03T04:14:23;2.60;99.90
13806;DHT22;6974;53.606;9.872;2023-04-03T04:16:50;2.60;99.90
13806;DHT22;6974;53.606;9.872;2023-04-03T04:19:17;2.60;99.90
13806;DHT22;6974;53.606;9.872;2023-04-03T04:21:44;2.50;99.90
13806;DHT22;6974;53.606;9.872;2023-04-03T04:24:12;2.50;99.90
13806;DHT22;6974;53.606;9.872;2023-04-03T04:26:40;2.50;99.90
13806;DHT22;6974;53.606;9.872;2023-04-03T04:29:08;2.50;99.90
13806;DHT22;6974;53.606;9.872;2023-04-03T04:31:36;2.40;99.90
13806;DHT22;6974;53.606;9.872;2023-04-03T04:34:03;2.40;99.90
13806;DHT22;6974;53.606;9.872;2023-04-03T04:36:30;2.40;99.90
13806;DHT22;6974;53.606;9.872;2023-04-03T04:38:57;2.40;99.90
13806;DHT22;6974;53.606;9.872;2023-04-03T04:41:26;2.40;99.90
13806;DHT22;6974;53.606;9.872;2023-04-03T04:43:53;2.40;99.90
13806;DHT22;6974;53.606;9.872;2023-04-03T04:46:20;2.40;99.90
13806;DHT22;6974;53.606;9.872;2023-04-03T04:48:47;2.40;99.90
13806;DHT22;6974;53.606;9.872;2023-04-03T04:51:15;2.40;99.90
13806;DHT22;6974;53.606;9.872;2023-04-03T04:53:42;2.40;99.90
13806;DHT22;6974;53.606;9.872;2023-04-03T04:56:09;2.40;99.90
13806;DHT22;6974;53.606;9.872;2023-04-03T04:58:38;2.40;99.90
13806;DHT22;6974;53.606;9.872;2023-04-03T05:01:07;2.40;99.90
13806;DHT22;6974;53.606;9.872;2023-04-03T05:03:34;2.40;99.90
13806;DHT22;6974;53.606;9.872;2023-04-03T05:06:02;2.40;99.90
13806;DHT22;6974;53.606;9.872;2023-04-03T05:08:29;2.40;99.90
13806;DHT22;6974;53.606;9.872;2023-04-03T05:10:56;2.40;99.90
13806;DHT22;6974;53.606;9.872;2023-04-03T05:13:23;2.40;99.90
13806;DHT22;6974;53.606;9.872;2023-04-03T05:15:52;2.40;99.90
13806;DHT22;6974;53.606;9.872;2023-04-03T05:18:19;2.40;99.90
13806;DHT22;6974;53.606;9.872;2023-04-03T05:20:48;2.30;99.90
13806;DHT22;6974;53.606;9.872;2023-04-03T05:23:16;2.30;99.90
13806;DHT22;6974;53.606;9.872;2023-04-03T05:25:43;2.30;99.90
13806;DHT22;6974;53.606;9.872;2023-04-03T05:28:10;2.30;99.90
13806;DHT22;6974;53.606;9.872;2023-04-03T05:30:38;2.30;99.90
13806;DHT22;6974;53.606;9.872;2023-04-03T05:33:06;2.40;99.90
13806;DHT22;6974;53.606;9.872;2023-04-03T05:35:35;2.40;99.90
13806;DHT22;6974;53.606;9.872;2023-04-03T05:38:04;2.50;99.90
13806;DHT22;6974;53.606;9.872;2023-04-03T05:40:31;2.50;99.90
13806;DHT22;6974;53.606;9.872;2023-04-03T05:42:58;2.60;99.90
13806;DHT22;6974;53.606;9.872;2023-04-03T05:45:26;2.60;99.90
13806;DHT22;6974;53.606;9.872;2023-04-03T05:47:54;2.50;99.90
13806;DHT22;6974;53.606;9.872;2023-04-03T05:50:22;2.50;99.90
13806;DHT22;6974;53.606;9.872;2023-04-03T05:52:51;2.50;99.90
13806;DHT22;6974;53.606;9.872;2023-04-03T05:55:19;2.70;99.90
13806;DHT22;6974;53.606;9.872;2023-04-03T05:57:46;2.80;99.90
13806;DHT22;6974;53.606;9.872;2023-04-03T06:00:14;2.80;99.90
13806;DHT22;6974;53.606;9.872;2023-04-03T06:02:42;2.80;99.90
13806;DHT22;6974;53.606;9.872;2023-04-03T06:05:10;2.90;99.90
13806;DHT22;6974;53.606;9.872;2023-04-03T06:07:40;2.80;99.90
13806;DHT22;6974;53.606;9.872;2023-04-03T06:10:07;2.90;99.90
13806;DHT22;6974;53.606;9.872;2023-04-03T06:12:35;3.00;99.90
13806;DHT22;6974;53.606;9.872;2023-04-03T06:15:03;3.00;99.90
13806;DHT22;6974;53.606;9.872;2023-04-03T06:17:30;3.00;99.90
13806;DHT22;6974;53.606;9.872;2023-04-03T06:19:58;3.10;99.90
13806;DHT22;6974;53.606;9.872;2023-04-03T06:22:25;3.20;99.90
13806;DHT22;6974;53.606;9.872;2023-04-03T06:24:54;3.20;99.90
13806;DHT22;6974;53.606;9.872;2023-04-03T06:27:21;3.30;99.90
13806;DHT22;6974;53.606;9.872;2023-04-03T06:29:49;3.40;99.90
13806;DHT22;6974;53.606;9.872;2023-04-03T06:32:16;3.40;99.90
13806;DHT22;6974;53.606;9.872;2023-04-03T06:34:44;3.50;99.90
13806;DHT22;6974;53.606;9.872;2023-04-03T06:37:15;3.60;99.90
13806;DHT22;6974;53.606;9.872;2023-04-03T06:39:43;3.70;99.90
13806;DHT22;6974;53.606;9.872;2023-04-03T06:42:12;3.70;99.90
13806;DHT22;6974;53.606;9.872;2023-04-03T06:44:39;3.80;99.90
13806;DHT22;6974;53.606;9.872;2023-04-03T06:47:06;3.90;99.90
13806;DHT22;6974;53.606;9.872;2023-04-03T06:49:34;4.00;99.90
13806;DHT22;6974;53.606;9.872;2023-04-03T06:52:02;4.00;99.90
13806;DHT22;6974;53.606;9.872;2023-04-03T06:54:31;4.10;99.90
13806;DHT22;6974;53.606;9.872;2023-04-03T06:56:58;4.20;99.90
13806;DHT22;6974;53.606;9.872;2023-04-03T06:59:27;4.30;99.90
13806;DHT22;6974;53.606;9.872;2023-04-03T07:01:55;4.30;99.90
13806;DHT22;6974;53.606;9.872;2023-04-03T07:04:22;4.40;99.90
13806;DHT22;6974;53.606;9.872;2023-04-03T07:06:49;4.50;99.90
13806;DHT22;6974;53.606;9.872;2023-04-03T07:09:16;4.60;99.90
13806;DHT22;6974;53.606;9.872;2023-04-03T07:11:43;4.60;99.90
13806;DHT22;6974;53.606;9.872;2023-04-03T07:14:11;4.70;99.90
13806;DHT22;6974;53.606;9.872;2023-04-03T07:16:39;4.80;99.90
13806;DHT22;6974;53.606;9.872;2023-04-03T07:19:06;4.90;99.90
13806;DHT22;6974;53.606;9.872;2023-04-03T07:21:34;5.00;99.90
13806;DHT22;6974;53.606;9.872;2023-04-03T07:24:02;5.10;99.90
13806;DHT22;6974;53.606;9.872;2023-04-03T07:26:29;5.20;99.90
13806;DHT22;6974;53.606;9.872;2023-04-03T07:28:57;5.20;99.90
13806;DHT22;6974;53.606;9.872;2023-04-03T07:31:24;5.30;99.90
13806;DHT22;6974;53.606;9.872;2023-04-03T07:33:53;5.40;99.90
13806;DHT22;6974;53.606;9.872;2023-04-03T07:36:22;5.50;99.90
13806;DHT22;6974;53.606;9.872;2023-04-03T07:38:49;5.60;99.90
13806;DHT22;6974;53.606;9.872;2023-04-03T07:41:17;5.70;99.90
13806;DHT22;6974;53.606;9.872;2023-04-03T07:43:45;5.80;99.90
13806;DHT22;6974;53.606;9.872;2023-04-03T07:46:15;5.80;99.90
13806;DHT22;6974;53.606;9.872;2023-04-03T07:48:42;5.80;99.90
13806;DHT22;6974;53.606;9.872;2023-04-03T07:51:12;5.80;99.90
13806;DHT22;6974;53.606;9.872;2023-04-03T07:53:40;5.90;99.90
13806;DHT22;6974;53.606;9.872;2023-04-03T07:56:08;5.90;99.90
13806;DHT22;6974;53.606;9.872;2023-04-03T07:58:36;6.00;99.90
13806;DHT22;6974;53.606;9.872;2023-04-03T08:01:04;6.10;99.90
13806;DHT22;6974;53.606;9.872;2023-04-03T08:03:31;6.40;99.90
13806;DHT22;6974;53.606;9.872;2023-04-03T08:06:02;6.30;99.90
13806;DHT22;6974;53.606;9.872;2023-04-03T08:08:32;6.50;99.90
13806;DHT22;6974;53.606;9.872;2023-04-03T08:11:00;6.60;99.90
13806;DHT22;6974;53.606;9.872;2023-04-03T08:13:29;6.60;99.90
13806;DHT22;6974;53.606;9.872;2023-04-03T08:15:56;6.60;99.90
13806;DHT22;6974;53.606;9.872;2023-04-03T08:18:25;6.70;99.90
13806;DHT22;6974;53.606;9.872;2023-04-03T08:20:54;6.90;99.90
13806;DHT22;6974;53.606;9.872;2023-04-03T08:23:21;7.00;99.90
13806;DHT22;6974;53.606;9.872;2023-04-03T08:25:50;7.00;99.90
13806;DHT22;6974;53.606;9.872;2023-04-03T08:28:17;7.10;99.90
13806;DHT22;6974;53.606;9.872;2023-04-03T08:30:44;7.10;99.90
13806;DHT22;6974;53.606;9.872;2023-04-03T08:33:12;7.30;99.90
13806;DHT22;6974;53.606;9.872;2023-04-03T08:35:39;7.30;99.90
13806;DHT22;6974;53.606;9.872;2023-04-03T08:38:07;7.40;99.90
13806;DHT22;6974;53.606;9.872;2023-04-03T08:40:34;7.30;99.90
13806;DHT22;6974;53.606;9.872;2023-04-03T08:43:19;7.40;99.90
13806;DHT22;6974;53.606;9.872;2023-04-03T08:45:51;7.40;99.90
13806;DHT22;6974;53.606;9.872;2023-04-03T08:48:22;7.40;99.90
13806;DHT22;6974;53.606;9.872;2023-04-03T08:50:54;7.60;99.90
13806;DHT22;6974;53.606;9.872;2023-04-03T08:53:25;7.70;99.90
13806;DHT22;6974;53.606;9.872;2023-04-03T08:55:55;7.70;99.90
13806;DHT22;6974;53.606;9.872;2023-04-03T08:58:30;7.70;99.90
13806;DHT22;6974;53.606;9.872;2023-04-03T09:01:00;7.70;99.90
13806;DHT22;6974;53.606;9.872;2023-04-03T09:03:30;7.70;99.90
13806;DHT22;6974;53.606;9.872;2023-04-03T09:06:02;7.80;99.90
13806;DHT22;6974;53.606;9.872;2023-04-03T09:08:32;7.80;99.90
13806;DHT22;6974;53.606;9.872;2023-04-03T09:11:09;8.00;99.90
13806;DHT22;6974;53.606;9.872;2023-04-03T09:13:47;8.00;99.90
13806;DHT22;6974;53.606;9.872;2023-04-03T09:16:25;8.20;99.90
13806;DHT22;6974;53.606;9.872;2023-04-03T09:18:58;8.40;99.90
13806;DHT22;6974;53.606;9.872;2023-04-03T09:21:32;8.50;99.90
13806;DHT22;6974;53.606;9.872;2023-04-03T09:24:03;8.70;99.90
13806;DHT22;6974;53.606;9.872;2023-04-03T09:26:34;8.90;99.90
13806;DHT22;6974;53.606;9.872;2023-04-03T09:29:07;9.20;99.90
13806;DHT22;6974;53.606;9.872;2023-04-03T09:31:37;9.30;99.90
13806;DHT22;6974;53.606;9.872;2023-04-03T09:34:08;9.40;99.90
13806;DHT22;6974;53.606;9.872;2023-04-03T09:36:42;9.50;99.90
13806;DHT22;6974;53.606;9.872;2023-04-03T09:39:14;9.70;99.90
13806;DHT22;6974;53.606;9.872;2023-04-03T09:41:43;9.90;99.90
13806;DHT22;6974;53.606;9.872;2023-04-03T09:44:24;10.20;99.90
13806;DHT22;6974;53.606;9.872;2023-04-03T09:46:52;10.20;99.90
13806;DHT22;6974;53.606;9.872;2023-04-03T09:49:19;10.20;99.90
13806;DHT22;6974;53.606;9.872;2023-04-03T09:51:46;9.90;99.90
13806;DHT22;6974;53.606;9.872;2023-04-03T09:54:33;9.80;99.90
13806;DHT22;6974;53.606;9.872;2023-04-03T09:57:06;9.60;99.90
13806;DHT22;6974;53.606;9.872;2023-04-03T09:59:46;9.40;99.90
13806;DHT22;6974;53.606;9.872;2023-04-03T10:02:32;9.20;99.90
13806;DHT22;6974;53.606;9.872;2023-04-03T10:05:01;9.00;99.90
13806;DHT22;6974;53.606;9.872;2023-04-03T10:07:33;8.90;99.90
13806;DHT22;6974;53.606;9.872;2023-04-03T10:10:15;8.70;99.90
13806;DHT22;6974;53.606;9.872;2023-04-03T10:12:44;8.60;99.90
13806;DHT22;6974;53.606;9.872;2023-04-03T10:15:16;8.50;99.90
13806;DHT22;6974;53.606;9.872;2023-04-03T10:17:51;8.70;99.90
13806;DHT22;6974;53.606;9.872;2023-04-03T10:20:33;9.00;99.90
13806;DHT22;6974;53.606;9.872;2023-04-03T10:23:14;9.30;99.90
13806;DHT22;6974;53.606;9.872;2023-04-03T10:25:50;9.80;99.90
13806;DHT22;6974;53.606;9.872;2023-04-03T10:28:25;10.30;99.90
13806;DHT22;6974;53.606;9.872;2023-04-03T10:30:58;10.80;99.90
13806;DHT22;6974;53.606;9.872;2023-04-03T10:33:50;11.10;99.90
13806;DHT22;6974;53.606;9.872;2023-04-03T10:36:28;11.50;99.90
13806;DHT22;6974;53.606;9.872;2023-04-03T10:39:04;11.90;99.90
13806;DHT22;6974;53.606;9.872;2023-04-03T10:41:45;11.80;99.90
13806;DHT22;6974;53.606;9.872;2023-04-03T10:44:23;12.00;99.90
13806;DHT22;6974;53.606;9.872;2023-04-03T10:47:03;12.10;99.90
13806;DHT22;6974;53.606;9.872;2023-04-03T10:49:40;12.30;99.90
13806;DHT22;6974;53.606;9.872;2023-04-03T10:52:17;12.60;99.90
13806;DHT22;6974;53.606;9.872;2023-04-03T10:54:57;12.60;99.90
13806;DHT22;6974;53.606;9.872;2023-04-03T10:57:26;12.80;99.90
13806;DHT22;6974;53.606;9.872;2023-04-03T10:59:57;12.80;99.90
13806;DHT22;6974;53.606;9.872;2023-04-03T11:02:29;12.90;99.90
13806;DHT22;6974;53.606;9.872;2023-04-03T11:05:01;12.90;99.90
13806;DHT22;6974;53.606;9.872;2023-04-03T11:07:32;12.80;99.90
13806;DHT22;6974;53.606;9.872;2023-04-03T11:10:05;12.70;99.90
13806;DHT22;6974;53.606;9.872;2023-04-03T11:12:41;13.00;99.90
13806;DHT22;6974;53.606;9.872;2023-04-03T11:15:13;13.00;99.90
13806;DHT22;6974;53.606;9.872;2023-04-03T11:17:47;12.90;99.90
13806;DHT22;6974;53.606;9.872;2023-04-03T11:20:18;12.40;99.90
13806;DHT22;6974;53.606;9.872;2023-04-03T11:22:50;12.00;99.90
13806;DHT22;6974;53.606;9.872;2023-04-03T11:25:21;11.80;99.90
13806;DHT22;6974;53.606;9.872;2023-04-03T11:27:54;11.50;99.90
13806;DHT22;6974;53.606;9.872;2023-04-03T11:30:24;11.20;99.90
13806;DHT22;6974;53.606;9.872;2023-04-03T11:33:19;11.10;99.90
13806;DHT22;6974;53.606;9.872;2023-04-03T11:35:50;11.10;99.90
13806;DHT22;6974;53.606;9.872;2023-04-03T11:38:22;11.50;99.90
13806;DHT22;6974;53.606;9.872;2023-04-03T11:40:55;11.80;99.90
13806;DHT22;6974;53.606;9.872;2023-04-03T11:43:25;11.90;99.90
13806;DHT22;6974;53.606;9.872;2023-04-03T11:45:56;11.80;99.90
13806;DHT22;6974;53.606;9.872;2023-04-03T11:48:50;11.60;99.90
13806;DHT22;6974;53.606;9.872;2023-04-03T11:51:42;11.50;99.90
13806;DHT22;6974;53.606;9.872;2023-04-03T11:54:43;11.70;99.90
13806;DHT22;6974;53.606;9.872;2023-04-03T11:57:44;12.10;99.90
13806;DHT22;6974;53.606;9.872;2023-04-03T12:03:57;13.00;99.90
13806;DHT22;6974;53.606;9.872;2023-04-03T12:07:01;13.30;99.90
13806;DHT22;6974;53.606;9.872;2023-04-03T12:09:57;13.10;99.90
13806;DHT22;6974;53.606;9.872;2023-04-03T12:12:36;13.00;99.90
13806;DHT22;6974;53.606;9.872;2023-04-03T12:21:20;12.00;99.90
13806;DHT22;6974;53.606;9.872;2023-04-03T12:24:00;11.80;99.90
13806;DHT22;6974;53.606;9.872;2023-04-03T12:26:31;11.60;99.90
13806;DHT22;6974;53.606;9.872;2023-04-03T12:29:02;11.40;99.90
13806;DHT22;6974;53.606;9.872;2023-04-03T12:31:42;11.10;99.90
13806;DHT22;6974;53.606;9.872;2023-04-03T12:34:23;11.00;99.90
13806;DHT22;6974;53.606;9.872;2023-04-03T12:37:01;11.10;99.90
13806;DHT22;6974;53.606;9.872;2023-04-03T12:39:48;11.40;99.90
13806;DHT22;6974;53.606;9.872;2023-04-03T12:42:32;11.60;99.90
13806;DHT22;6974;53.606;9.872;2023-04-03T12:45:13;11.90;99.90
13806;DHT22;6974;53.606;9.872;2023-04-03T12:47:43;12.00;99.90
13806;DHT22;6974;53.606;9.872;2023-04-03T12:50:18;12.20;99.90
13806;DHT22;6974;53.606;9.872;2023-04-03T12:52:55;12.40;99.90
13806;DHT22;6974;53.606;9.872;2023-04-03T12:55:24;12.30;99.90
13806;DHT22;6974;53.606;9.872;2023-04-03T12:57:52;12.20;99.90
13806;DHT22;6974;53.606;9.872;2023-04-03T13:00:28;11.80;99.90
13806;DHT22;6974;53.606;9.872;2023-04-03T13:02:56;11.80;99.90
13806;DHT22;6974;53.606;9.872;2023-04-03T13:05:25;11.70;99.90
13806;DHT22;6974;53.606;9.872;2023-04-03T13:08:04;11.40;99.90
13806;DHT22;6974;53.606;9.872;2023-04-03T13:10:35;11.30;99.90
13806;DHT22;6974;53.606;9.872;2023-04-03T13:13:09;11.30;99.90
13806;DHT22;6974;53.606;9.872;2023-04-03T13:15:44;11.40;99.90
13806;DHT22;6974;53.606;9.872;2023-04-03T13:18:29;11.60;99.90
13806;DHT22;6974;53.606;9.872;2023-04-03T13:21:01;11.80;99.90
13806;DHT22;6974;53.606;9.872;2023-04-03T13:23:35;12.10;99.90
13806;DHT22;6974;53.606;9.872;2023-04-03T13:26:04;12.40;99.90
13806;DHT22;6974;53.606;9.872;2023-04-03T13:28:33;12.40;99.90
13806;DHT22;6974;53.606;9.872;2023-04-03T13:31:08;12.50;99.90
13806;DHT22;6974;53.606;9.872;2023-04-03T13:33:37;12.60;99.90
13806;DHT22;6974;53.606;9.872;2023-04-03T13:36:07;12.80;99.90
13806;DHT22;6974;53.606;9.872;2023-04-03T13:38:41;13.00;99.90
13806;DHT22;6974;53.606;9.872;2023-04-03T13:41:24;13.00;99.90
13806;DHT22;6974;53.606;9.872;2023-04-03T13:43:52;13.10;99.90
13806;DHT22;6974;53.606;9.872;2023-04-03T13:46:25;13.20;99.90
13806;DHT22;6974;53.606;9.872;2023-04-03T13:48:54;13.10;99.90
13806;DHT22;6974;53.606;9.872;2023-04-03T13:51:23;13.10;99.90
13806;DHT22;6974;53.606;9.872;2023-04-03T13:53:54;13.10;99.90
13806;DHT22;6974;53.606;9.872;2023-04-03T13:56:31;12.90;99.90
13806;DHT22;6974;53.606;9.872;2023-04-03T13:59:19;13.00;99.90
13806;DHT22;6974;53.606;9.872;2023-04-03T14:01:50;13.10;99.90
13806;DHT22;6974;53.606;9.872;2023-04-03T14:04:21;13.30;99.90
13806;DHT22;6974;53.606;9.872;2023-04-03T14:06:49;13.40;99.90
13806;DHT22;6974;53.606;9.872;2023-04-03T14:09:20;13.60;99.70
13806;DHT22;6974;53.606;9.872;2023-04-03T14:11:48;13.50;99.50
13806;DHT22;6974;53.606;9.872;2023-04-03T14:14:19;13.30;99.80
13806;DHT22;6974;53.606;9.872;2023-04-03T14:16:50;13.20;99.70
13806;DHT22;6974;53.606;9.872;2023-04-03T14:19:22;13.00;99.00
13806;DHT22;6974;53.606;9.872;2023-04-03T14:21:51;12.80;99.90
13806;DHT22;6974;53.606;9.872;2023-04-03T14:24:20;12.80;99.90
13806;DHT22;6974;53.606;9.872;2023-04-03T14:26:49;12.80;99.80
13806;DHT22;6974;53.606;9.872;2023-04-03T14:29:18;12.80;99.70
13806;DHT22;6974;53.606;9.872;2023-04-03T14:31:47;12.70;99.90
13806;DHT22;6974;53.606;9.872;2023-04-03T14:34:14;12.80;99.90
13806;DHT22;6974;53.606;9.872;2023-04-03T14:36:43;12.90;99.90
13806;DHT22;6974;53.606;9.872;2023-04-03T14:39:16;12.70;99.90
13806;DHT22;6974;53.606;9.872;2023-04-03T14:41:45;12.90;99.90
13806;DHT22;6974;53.606;9.872;2023-04-03T14:44:13;12.70;99.90
13806;DHT22;6974;53.606;9.872;2023-04-03T14:46:42;12.60;99.60
13806;DHT22;6974;53.606;9.872;2023-04-03T14:49:13;12.40;99.30
13806;DHT22;6974;53.606;9.872;2023-04-03T14:51:42;12.20;99.60
13806;DHT22;6974;53.606;9.872;2023-04-03T14:54:13;12.20;99.90
13806;DHT22;6974;53.606;9.872;2023-04-03T14:56:41;12.30;99.90
13806;DHT22;6974;53.606;9.872;2023-04-03T14:59:12;12.30;99.90
13806;DHT22;6974;53.606;9.872;2023-04-03T15:01:40;12.30;99.90
13806;DHT22;6974;53.606;9.872;2023-04-03T15:04:11;12.20;99.90
13806;DHT22;6974;53.606;9.872;2023-04-03T15:06:39;12.10;99.90
13806;DHT22;6974;53.606;9.872;2023-04-03T15:09:11;12.20;99.90
13806;DHT22;6974;53.606;9.872;2023-04-03T15:11:41;12.40;99.90
13806;DHT22;6974;53.606;9.872;2023-04-03T15:14:10;12.50;99.90
13806;DHT22;6974;53.606;9.872;2023-04-03T15:16:37;12.70;99.90
13806;DHT22;6974;53.606;9.872;2023-04-03T15:19:06;12.90;99.90
13806;DHT22;6974;53.606;9.872;2023-04-03T15:21:33;13.10;99.90
13806;DHT22;6974;53.606;9.872;2023-04-03T15:24:00;13.30;99.90
13806;DHT22;6974;53.606;9.872;2023-04-03T15:26:28;13.40;99.90
13806;DHT22;6974;53.606;9.872;2023-04-03T15:28:56;13.20;99.90
13806;DHT22;6974;53.606;9.872;2023-04-03T15:31:24;12.90;99.90
13806;DHT22;6974;53.606;9.872;2023-04-03T15:33:51;12.60;99.90
13806;DHT22;6974;53.606;9.872;2023-04-03T15:36:19;12.30;99.90
13806;DHT22;6974;53.606;9.872;2023-04-03T15:38:47;12.10;99.90
13806;DHT22;6974;53.606;9.872;2023-04-03T15:41:14;12.30;99.90
13806;DHT22;6974;53.606;9.872;2023-04-03T15:43:41;12.50;99.90
13806;DHT22;6974;53.606;9.872;2023-04-03T15:46:08;12.70;99.90
13806;DHT22;6974;53.606;9.872;2023-04-03T15:48:37;12.70;99.90
13806;DHT22;6974;53.606;9.872;2023-04-03T15:51:05;12.60;99.90
13806;DHT22;6974;53.606;9.872;2023-04-03T15:53:33;12.60;99.90
13806;DHT22;6974;53.606;9.872;2023-04-03T15:56:00;12.60;99.90
13806;DHT22;6974;53.606;9.872;2023-04-03T15:58:27;12.30;99.90
13806;DHT22;6974;53.606;9.872;2023-04-03T16:00:55;12.10;99.90
13806;DHT22;6974;53.606;9.872;2023-04-03T16:03:22;11.80;99.90
13806;DHT22;6974;53.606;9.872;2023-04-03T16:05:51;11.50;99.90
13806;DHT22;6974;53.606;9.872;2023-04-03T16:08:19;11.30;99.90
13806;DHT22;6974;53.606;9.872;2023-04-03T16:10:46;11.30;99.90
13806;DHT22;6974;53.606;9.872;2023-04-03T16:13:15;11.30;99.90
13806;DHT22;6974;53.606;9.872;2023-04-03T16:15:42;11.20;99.90
13806;DHT22;6974;53.606;9.872;2023-04-03T16:18:09;11.10;99.90
13806;DHT22;6974;53.606;9.872;2023-04-03T16:20:38;11.00;99.90
13806;DHT22;6974;53.606;9.872;2023-04-03T16:23:07;11.00;99.90
13806;DHT22;6974;53.606;9.872;2023-04-03T16:25:34;11.00;99.90
13806;DHT22;6974;53.606;9.872;2023-04-03T16:28:02;11.00;99.90